Time;durP1;ratioP1;P1;durP2;ratioP2;P2;SDS_P1;SDS_P2;PMS_P1;PMS_P2;Temp;Humidity;BMP_temperature;BMP_pressure;BME280_temperature;BME280_humidity;BME280_pressure;Samples;Min_cycle;Max_cycle;Signal;HPM_P1;HPM_P2
2023/02/25 00:01:10;;;;;;;0.68;0.60;;;18.20;39.20;;;;;;4939300;29;20200;-81
2023/02/25 00:03:37;;;;;;;1.10;0.65;;;18.10;39.20;;;;;;4922599;29;20539;-81
2023/02/25 00:06:04;;;;;;;0.77;0.50;;;18.20;39.20;;;;;;4923237;29;20201;-81
2023/02/25 00:08:30;;;;;;;1.00;0.57;;;18.20;39.20;;;;;;4922973;29;20170;-81
2023/02/25 00:10:58;;;;;;;0.68;0.65;;;18.10;39.20;;;;;;4938813;29;20166;-81
2023/02/25 00:13:24;;;;;;;1.98;0.70;;;18.20;39.20;;;;;;4922435;29;20150;-82
2023/02/25 00:15:50;;;;;;;1.08;0.80;;;18.20;39.30;;;;;;4938655;29;20169;-82
2023/02/25 00:18:16;;;;;;;1.20;0.63;;;18.10;39.30;;;;;;4922447;29;20177;-82
2023/02/25 00:20:41;;;;;;;1.63;0.70;;;18.10;39.30;;;;;;4938703;29;20180;-82
2023/02/25 00:23:07;;;;;;;0.88;0.70;;;18.10;39.30;;;;;;4938116;29;20632;-81
2023/02/25 00:25:33;;;;;;;0.98;0.68;;;18.10;39.30;;;;;;4922343;29;20197;-82
2023/02/25 00:27:59;;;;;;;0.60;0.50;;;18.10;39.40;;;;;;4928827;28;20232;-82
2023/02/25 00:30:25;;;;;;;1.25;0.70;;;18.00;39.40;;;;;;4909689;29;20173;-82
2023/02/25 00:32:51;;;;;;;1.17;0.50;;;18.10;39.40;;;;;;4909046;29;20580;-82
2023/02/25 00:35:17;;;;;;;0.60;0.43;;;18.10;39.40;;;;;;4925197;29;20157;-82
2023/02/25 00:37:43;;;;;;;0.50;0.50;;;18.10;39.50;;;;;;4958872;29;20208;-82
2023/02/25 00:40:13;;;;;;;1.45;1.00;;;18.10;39.60;;;;;;4941586;29;20528;-82
2023/02/25 00:42:40;;;;;;;1.27;0.88;;;18.10;39.60;;;;;;4941470;29;20161;-82
2023/02/25 00:45:06;;;;;;;0.63;0.63;;;18.10;39.60;;;;;;4925841;29;20205;-82
2023/02/25 00:47:32;;;;;;;0.85;0.65;;;18.00;39.60;;;;;;4928934;29;20537;-82
2023/02/25 00:49:58;;;;;;;0.85;0.70;;;18.10;39.60;;;;;;4944236;29;20157;-82
2023/02/25 00:52:24;;;;;;;1.10;0.70;;;18.10;39.60;;;;;;4944164;29;20268;-82
2023/02/25 00:54:49;;;;;;;0.73;0.60;;;18.00;39.70;;;;;;4912889;29;20180;-82
2023/02/25 00:57:15;;;;;;;0.90;0.60;;;18.00;39.70;;;;;;4928463;29;20162;-82
2023/02/25 00:59:41;;;;;;;1.45;0.57;;;18.00;39.80;;;;;;4927908;29;20258;-82
2023/02/25 01:02:06;;;;;;;1.30;0.80;;;18.00;39.80;;;;;;4944304;29;20185;-82
2023/02/25 01:04:32;;;;;;;0.85;0.52;;;18.10;39.80;;;;;;4943824;29;20169;-82
2023/02/25 01:06:58;;;;;;;1.10;0.60;;;18.00;39.80;;;;;;4927872;29;20197;-82
2023/02/25 01:09:23;;;;;;;0.40;0.40;;;18.00;39.90;;;;;;4944090;29;20216;-82
2023/02/25 01:11:49;;;;;;;1.35;0.70;;;18.00;39.80;;;;;;4944034;29;20208;-82
2023/02/25 01:14:18;;;;;;;1.23;0.70;;;18.00;39.80;;;;;;4927852;29;20166;-82
2023/02/25 01:16:44;;;;;;;1.08;0.77;;;18.00;39.90;;;;;;4928161;29;20631;-82
2023/02/25 01:19:13;;;;;;;1.27;0.47;;;18.00;39.90;;;;;;4927833;29;20166;-82
2023/02/25 01:21:40;;;;;;;1.35;0.70;;;18.00;40.00;;;;;;4943512;28;20604;-82
2023/02/25 01:24:10;;;;;;;0.90;0.68;;;18.00;39.90;;;;;;4928222;29;20157;-82
2023/02/25 01:26:38;;;;;;;0.60;0.60;;;18.00;39.90;;;;;;4927880;29;20193;-82
2023/02/25 01:29:09;;;;;;;0.70;0.60;;;18.00;40.00;;;;;;4924539;29;20280;-81
2023/02/25 01:31:36;;;;;;;0.63;0.45;;;18.00;40.00;;;;;;4939916;29;20608;-82
2023/02/25 01:34:04;;;;;;;1.00;0.63;;;17.90;40.00;;;;;;4940043;29;20640;-82
2023/02/25 01:36:31;;;;;;;1.05;0.70;;;18.00;40.10;;;;;;4924591;29;20676;-81
2023/02/25 01:38:57;;;;;;;0.93;0.80;;;18.00;40.10;;;;;;4924865;29;20163;-82
2023/02/25 01:41:24;;;;;;;1.08;0.68;;;18.00;40.10;;;;;;4940070;29;20154;-82
2023/02/25 01:44:04;;;;;;;0.98;0.70;;;17.90;40.10;;;;;;4924667;29;20158;-82
2023/02/25 01:46:30;;;;;;;1.20;0.80;;;18.00;40.20;;;;;;4940133;29;20644;-82
2023/02/25 01:48:56;;;;;;;1.02;0.65;;;17.90;40.10;;;;;;4908767;29;20278;-82
2023/02/25 01:51:22;;;;;;;0.65;0.60;;;18.00;40.20;;;;;;4908538;29;20625;-82
2023/02/25 01:53:49;;;;;;;0.70;0.60;;;17.90;40.20;;;;;;4908557;29;20192;-82
2023/02/25 01:56:16;;;;;;;0.60;0.57;;;17.90;40.10;;;;;;4924671;29;20178;-82
2023/02/25 01:58:43;;;;;;;0.60;0.60;;;17.90;40.20;;;;;;4924479;29;20198;-82
2023/02/25 02:01:10;;;;;;;0.90;0.65;;;17.90;40.20;;;;;;4941734;29;20173;-82
2023/02/25 02:03:37;;;;;;;0.70;0.60;;;17.90;40.20;;;;;;4924636;29;20246;-82
2023/02/25 02:06:14;;;;;;;0.85;0.60;;;17.90;40.20;;;;;;4923720;29;20189;-82
2023/02/25 02:08:41;;;;;;;0.80;0.68;;;17.90;40.20;;;;;;4924816;29;20168;-82
2023/02/25 02:11:06;;;;;;;1.08;0.70;;;17.90;40.30;;;;;;4923787;29;20238;-82
2023/02/25 02:13:37;;;;;;;0.75;0.70;;;17.90;40.30;;;;;;4924114;29;20178;-82
2023/02/25 02:16:32;;;;;;;1.15;0.80;;;17.90;40.30;;;;;;4924732;29;20688;-82
2023/02/25 02:19:00;;;;;;;1.90;0.90;;;17.90;40.30;;;;;;4941095;29;20190;-82
2023/02/25 02:21:44;;;;;;;0.95;0.63;;;17.90;40.40;;;;;;4924043;29;20169;-82
2023/02/25 02:24:43;;;;;;;1.35;0.88;;;18.00;40.40;;;;;;4924981;29;20166;-82
2023/02/25 02:27:19;;;;;;;0.70;0.60;;;17.90;40.50;;;;;;4939506;29;20209;-82
2023/02/25 02:30:02;;;;;;;1.00;0.70;;;17.90;40.40;;;;;;4943916;29;20217;-82
2023/02/25 02:32:39;;;;;;;1.13;0.70;;;17.90;40.40;;;;;;4942782;29;20153;-82
2023/02/25 02:35:27;;;;;;;1.25;0.80;;;17.90;40.40;;;;;;4911578;29;20165;-82
2023/02/25 02:38:18;;;;;;;1.40;0.80;;;17.90;40.50;;;;;;4942496;29;20217;-82
2023/02/25 02:41:09;;;;;;;1.10;0.60;;;17.90;40.50;;;;;;4929054;29;20173;-82
2023/02/25 02:43:39;;;;;;;0.70;0.70;;;17.90;40.50;;;;;;4926148;29;20561;-82
2023/02/25 02:46:23;;;;;;;2.05;0.80;;;17.90;40.50;;;;;;4942454;29;20652;-82
2023/02/25 02:49:00;;;;;;;1.08;0.82;;;17.90;40.50;;;;;;4943837;29;20217;-82
2023/02/25 02:51:30;;;;;;;0.70;0.70;;;17.90;40.60;;;;;;4927280;29;20154;-82
2023/02/25 02:53:58;;;;;;;1.13;0.60;;;17.90;40.60;;;;;;4926465;29;20158;-82
2023/02/25 02:56:25;;;;;;;0.70;0.60;;;17.90;40.60;;;;;;4926808;29;20157;-82
2023/02/25 02:58:57;;;;;;;0.65;0.60;;;17.90;40.70;;;;;;4926913;29;20165;-82
2023/02/25 03:01:27;;;;;;;1.00;0.70;;;17.90;40.70;;;;;;4927157;29;20157;-82
2023/02/25 03:03:58;;;;;;;0.80;0.60;;;17.90;40.70;;;;;;4926499;29;20154;-82
2023/02/25 03:06:27;;;;;;;1.13;0.60;;;17.90;40.70;;;;;;4926246;29;20201;-82
2023/02/25 03:08:55;;;;;;;0.77;0.63;;;17.90;40.70;;;;;;4925142;29;20165;-82
2023/02/25 03:11:21;;;;;;;0.68;0.60;;;17.80;40.70;;;;;;4925842;29;20240;-82
2023/02/25 03:13:49;;;;;;;0.75;0.65;;;17.80;40.70;;;;;;4925492;29;20185;-81
2023/02/25 03:16:20;;;;;;;0.63;0.60;;;17.80;40.70;;;;;;4909976;29;20268;-82
2023/02/25 03:18:51;;;;;;;1.38;0.80;;;17.90;40.80;;;;;;4926115;29;20187;-82
2023/02/25 03:21:20;;;;;;;0.90;0.60;;;17.80;40.70;;;;;;4926668;29;20172;-82
2023/02/25 03:23:46;;;;;;;0.70;0.70;;;17.90;40.80;;;;;;4925801;29;20663;-82
2023/02/25 03:26:32;;;;;;;1.00;0.80;;;17.80;40.80;;;;;;4941327;29;20185;-82
2023/02/25 03:28:59;;;;;;;1.08;0.88;;;17.80;40.80;;;;;;4924591;29;20233;-82
2023/02/25 03:31:42;;;;;;;1.10;0.60;;;17.80;40.80;;;;;;4938092;29;20163;-82
2023/02/25 03:34:13;;;;;;;0.82;0.70;;;17.80;40.80;;;;;;4923995;29;20193;-82
2023/02/25 03:36:44;;;;;;;1.13;0.50;;;17.80;40.80;;;;;;4922804;29;20524;-82
2023/02/25 03:39:14;;;;;;;0.90;0.70;;;17.80;40.90;;;;;;4938419;29;20193;-82
2023/02/25 03:41:41;;;;;;;0.60;0.60;;;17.80;40.80;;;;;;4922310;29;20169;-81
2023/02/25 03:44:10;;;;;;;0.80;0.63;;;17.80;40.90;;;;;;4937913;29;20154;-82
2023/02/25 03:46:38;;;;;;;0.70;0.70;;;17.80;40.80;;;;;;4922350;29;20212;-82
2023/02/25 03:49:04;;;;;;;0.73;0.70;;;17.80;40.80;;;;;;4905985;29;20609;-82
2023/02/25 03:51:33;;;;;;;0.73;0.60;;;17.80;40.90;;;;;;4937914;29;20162;-82
2023/02/25 03:53:58;;;;;;;0.77;0.77;;;17.80;41.00;;;;;;4922434;29;20628;-82
2023/02/25 03:56:24;;;;;;;1.10;0.80;;;17.80;40.90;;;;;;4937789;29;20166;-82
2023/02/25 03:58:50;;;;;;;1.40;0.60;;;17.80;41.00;;;;;;4922062;29;20170;-82
2023/02/25 04:01:20;;;;;;;0.57;0.50;;;17.80;41.00;;;;;;4938349;29;20166;-82
2023/02/25 04:03:47;;;;;;;0.52;0.52;;;17.80;41.00;;;;;;4922763;29;20178;-82
2023/02/25 04:06:13;;;;;;;0.60;0.60;;;17.80;41.00;;;;;;4906614;29;20190;-82
2023/02/25 04:08:40;;;;;;;0.85;0.60;;;17.80;41.10;;;;;;4921745;29;20178;-82
2023/02/25 04:11:06;;;;;;;0.60;0.57;;;17.80;41.80;;;;;;4937740;29;20162;-82
2023/02/25 04:13:31;;;;;;;0.70;0.55;;;17.70;41.10;;;;;;4938146;29;20158;-82
2023/02/25 04:15:57;;;;;;;2.58;0.85;;;17.80;41.00;;;;;;4937901;29;20158;-82
2023/02/25 04:18:23;;;;;;;0.68;0.52;;;17.80;41.10;;;;;;4921988;29;20519;-82
2023/02/25 04:20:49;;;;;;;1.00;0.80;;;17.80;41.10;;;;;;4938694;29;20155;-82
2023/02/25 04:23:15;;;;;;;1.23;0.82;;;17.80;41.10;;;;;;4941464;29;20715;-82
2023/02/25 04:25:42;;;;;;;0.90;0.60;;;17.80;41.10;;;;;;4910036;29;20210;-82
2023/02/25 04:28:08;;;;;;;0.95;0.70;;;17.80;41.10;;;;;;4924819;29;20229;-82
2023/02/25 04:30:34;;;;;;;0.90;0.63;;;17.80;41.20;;;;;;4941568;29;20197;-82
2023/02/25 04:33:00;;;;;;;0.65;0.63;;;17.80;41.20;;;;;;4941541;29;20166;-81
2023/02/25 04:35:26;;;;;;;0.73;0.70;;;17.80;41.20;;;;;;4909851;29;20182;-82
2023/02/25 04:37:51;;;;;;;0.63;0.60;;;17.80;41.20;;;;;;4925888;29;20173;-82
2023/02/25 04:40:19;;;;;;;0.85;0.60;;;17.80;41.20;;;;;;4941734;29;20167;-82
2023/02/25 04:42:44;;;;;;;0.95;0.70;;;17.80;41.20;;;;;;4909903;29;20526;-83
2023/02/25 04:45:11;;;;;;;0.50;0.50;;;17.80;41.20;;;;;;4925422;29;20167;-82
2023/02/25 04:47:38;;;;;;;0.65;0.65;;;17.80;41.20;;;;;;4941515;29;20154;-82
2023/02/25 04:50:04;;;;;;;0.77;0.60;;;17.80;41.30;;;;;;4909568;29;20256;-82
2023/02/25 04:52:30;;;;;;;1.10;0.70;;;17.80;41.40;;;;;;4909537;29;20174;-82
2023/02/25 04:54:55;;;;;;;0.68;0.57;;;17.80;41.30;;;;;;4941165;29;20162;-82
2023/02/25 04:57:22;;;;;;;1.10;0.60;;;17.70;41.30;;;;;;4924911;29;20618;-82
2023/02/25 04:59:48;;;;;;;0.88;0.60;;;17.80;41.30;;;;;;4909333;29;20170;-82
2023/02/25 05:02:13;;;;;;;1.00;0.70;;;17.80;41.30;;;;;;4940803;29;20165;-83
2023/02/25 05:04:39;;;;;;;0.90;0.63;;;17.70;41.30;;;;;;4941184;29;20167;-82
2023/02/25 05:07:06;;;;;;;0.65;0.65;;;17.80;41.30;;;;;;4909225;29;20541;-82
2023/02/25 05:09:32;;;;;;;1.05;0.70;;;17.80;41.30;;;;;;4925336;29;20162;-82
2023/02/25 05:11:58;;;;;;;0.50;0.50;;;17.70;41.30;;;;;;4925228;29;20237;-82
2023/02/25 05:14:24;;;;;;;0.60;0.60;;;17.80;41.40;;;;;;4908749;29;20166;-82
2023/02/25 05:16:50;;;;;;;1.45;0.60;;;17.70;41.30;;;;;;4940213;29;20571;-82
2023/02/25 05:19:16;;;;;;;1.25;0.63;;;17.70;41.40;;;;;;4940450;29;20158;-82
2023/02/25 05:21:42;;;;;;;0.55;0.55;;;17.70;41.40;;;;;;4924199;29;20159;-83
2023/02/25 05:24:08;;;;;;;0.50;0.50;;;17.70;41.40;;;;;;4940213;29;20181;-82
2023/02/25 05:26:34;;;;;;;1.00;0.80;;;17.70;41.30;;;;;;4923944;29;20194;-82
2023/02/25 05:28:59;;;;;;;1.00;0.63;;;17.80;41.40;;;;;;4935311;29;20229;-82
2023/02/25 05:31:25;;;;;;;0.50;0.50;;;17.70;41.40;;;;;;4939512;29;20186;-82
2023/02/25 05:33:51;;;;;;;0.80;0.70;;;17.70;41.40;;;;;;4939927;29;20184;-82
2023/02/25 05:36:16;;;;;;;0.60;0.60;;;17.80;41.50;;;;;;4955974;28;20579;-82
2023/02/25 05:38:42;;;;;;;0.68;0.60;;;17.70;41.50;;;;;;4939769;29;20573;-82
2023/02/25 05:41:08;;;;;;;0.90;0.60;;;17.70;41.40;;;;;;4939999;29;20158;-82
2023/02/25 05:43:34;;;;;;;0.95;0.57;;;17.70;41.50;;;;;;4940981;29;20162;-82
2023/02/25 05:46:02;;;;;;;0.85;0.65;;;17.70;41.50;;;;;;4939474;29;20205;-82
2023/02/25 05:48:27;;;;;;;0.82;0.70;;;17.60;41.50;;;;;;4924493;29;20563;-82
2023/02/25 05:51:00;;;;;;;1.50;0.85;;;17.70;41.50;;;;;;4939381;29;20213;-82
2023/02/25 05:53:25;;;;;;;0.82;0.60;;;17.70;41.60;;;;;;4955309;28;20165;-82
2023/02/25 05:55:51;;;;;;;0.90;0.60;;;17.70;41.60;;;;;;4939703;29;20261;-82
2023/02/25 05:58:17;;;;;;;0.77;0.60;;;17.70;41.60;;;;;;4939765;29;20166;-82
2023/02/25 06:00:43;;;;;;;0.90;0.60;;;17.70;41.70;;;;;;4939510;29;20294;-83
2023/02/25 06:03:09;;;;;;;0.65;0.63;;;17.60;41.60;;;;;;4939364;29;20212;-82
2023/02/25 06:05:39;;;;;;;1.13;0.52;;;17.70;41.60;;;;;;4939578;29;20194;-82
2023/02/25 06:08:04;;;;;;;0.70;0.60;;;17.70;41.60;;;;;;4939062;29;20167;-82
2023/02/25 06:10:37;;;;;;;0.63;0.50;;;17.70;41.60;;;;;;4923321;29;20222;-82
2023/02/25 06:13:04;;;;;;;1.10;0.77;;;17.70;41.60;;;;;;4947040;29;20265;-82
2023/02/25 06:15:29;;;;;;;0.70;0.70;;;17.70;41.60;;;;;;4920879;29;20535;-82
2023/02/25 06:17:55;;;;;;;0.60;0.60;;;17.60;41.60;;;;;;4920321;29;20159;-82
2023/02/25 06:20:24;;;;;;;1.35;0.80;;;17.70;41.70;;;;;;4904105;29;20581;-82
2023/02/25 06:22:50;;;;;;;1.20;0.70;;;17.70;41.60;;;;;;4920235;29;20674;-82
2023/02/25 06:25:16;;;;;;;0.93;0.70;;;17.70;41.70;;;;;;4904625;29;20653;-82
2023/02/25 06:27:42;;;;;;;0.60;0.52;;;17.60;41.70;;;;;;4904294;29;20230;-82
2023/02/25 06:30:08;;;;;;;0.60;0.60;;;17.70;41.80;;;;;;4920210;29;20193;-82
2023/02/25 06:32:34;;;;;;;1.30;0.65;;;17.70;41.80;;;;;;4921105;29;20166;-82
2023/02/25 06:35:00;;;;;;;0.90;0.60;;;17.70;41.90;;;;;;4920977;29;20163;-82
2023/02/25 06:37:26;;;;;;;0.75;0.70;;;17.70;41.80;;;;;;4921248;29;20508;-82
2023/02/25 06:39:52;;;;;;;0.80;0.60;;;17.70;41.90;;;;;;4922485;29;20163;-82
2023/02/25 06:42:18;;;;;;;1.67;0.80;;;17.60;41.70;;;;;;4905764;29;20185;-82
2023/02/25 06:44:49;;;;;;;1.10;0.60;;;17.70;41.80;;;;;;4905986;29;20198;-82
2023/02/25 06:47:15;;;;;;;1.20;0.80;;;17.70;41.70;;;;;;4934675;29;20194;-83
2023/02/25 06:49:40;;;;;;;1.15;0.70;;;17.70;41.90;;;;;;4925334;29;20162;-82
2023/02/25 06:52:06;;;;;;;0.90;0.60;;;17.60;41.80;;;;;;4934484;29;20166;-82
2023/02/25 06:54:33;;;;;;;0.65;0.50;;;17.60;41.90;;;;;;4941936;29;20533;-82
2023/02/25 06:56:59;;;;;;;0.50;0.50;;;17.60;41.90;;;;;;4926235;29;20166;-82
2023/02/25 06:59:25;;;;;;;0.68;0.65;;;17.60;41.80;;;;;;4941741;29;20176;-82
2023/02/25 07:01:50;;;;;;;1.33;0.80;;;17.70;41.90;;;;;;4926449;29;20252;-82
2023/02/25 07:04:17;;;;;;;0.55;0.50;;;17.70;41.80;;;;;;4941403;29;20167;-82
2023/02/25 07:06:42;;;;;;;0.70;0.70;;;17.60;41.80;;;;;;4909749;29;20262;-82
2023/02/25 07:09:08;;;;;;;1.38;0.75;;;17.60;41.80;;;;;;4925690;29;20188;-82
2023/02/25 07:11:35;;;;;;;1.30;0.80;;;17.70;41.80;;;;;;4941259;29;20154;-82
2023/02/25 07:14:03;;;;;;;0.77;0.60;;;17.60;41.90;;;;;;4910636;29;20629;-82
2023/02/25 07:16:30;;;;;;;0.60;0.60;;;17.60;41.90;;;;;;4890956;29;20170;-82
2023/02/25 07:18:56;;;;;;;0.70;0.68;;;17.80;41.90;;;;;;4905288;29;20622;-83
2023/02/25 07:21:28;;;;;;;0.60;0.45;;;17.70;41.90;;;;;;4903111;29;20197;-83
2023/02/25 07:23:54;;;;;;;2.75;0.80;;;17.70;41.70;;;;;;4904019;29;20155;-82
2023/02/25 07:26:19;;;;;;;0.50;0.50;;;17.70;41.70;;;;;;4920358;29;20524;-82
2023/02/25 07:28:47;;;;;;;0.88;0.60;;;17.70;41.90;;;;;;4902465;29;20222;-82
2023/02/25 07:31:14;;;;;;;0.50;0.50;;;17.70;41.90;;;;;;4917976;29;20205;-82
2023/02/25 07:33:50;;;;;;;0.80;0.60;;;17.70;42.00;;;;;;4888878;29;20174;-83
2023/02/25 07:36:16;;;;;;;0.75;0.60;;;17.70;41.90;;;;;;4901916;29;20192;-82
2023/02/25 07:38:42;;;;;;;1.92;0.63;;;17.60;41.80;;;;;;4901992;29;20630;-83
2023/02/25 07:41:10;;;;;;;0.63;0.40;;;17.70;41.90;;;;;;4902441;29;20191;-81
2023/02/25 07:43:35;;;;;;;1.25;0.68;;;17.70;42.00;;;;;;4919417;29;20225;-81
2023/02/25 07:46:01;;;;;;;0.73;0.57;;;17.70;41.90;;;;;;4931040;29;20724;-81
2023/02/25 07:48:27;;;;;;;0.98;0.70;;;17.70;41.90;;;;;;4921753;29;20539;-82
2023/02/25 07:50:54;;;;;;;0.57;0.50;;;17.70;42.00;;;;;;4937346;29;20166;-82
2023/02/25 07:53:21;;;;;;;2.13;0.57;;;17.70;42.00;;;;;;4934684;29;20226;-82
2023/02/25 07:55:49;;;;;;;2.60;0.80;;;17.70;42.00;;;;;;4919924;29;20553;-82
2023/02/25 07:58:16;;;;;;;0.60;0.60;;;17.70;42.10;;;;;;4907843;29;20241;-83
2023/02/25 08:00:43;;;;;;;0.60;0.60;;;17.70;42.00;;;;;;4891732;29;20177;-82
2023/02/25 08:03:09;;;;;;;1.15;0.50;;;17.70;42.00;;;;;;4906769;29;20267;-82
2023/02/25 08:05:35;;;;;;;0.70;0.60;;;17.70;42.00;;;;;;4905482;29;20226;-82
2023/02/25 08:08:04;;;;;;;0.93;0.57;;;17.70;41.90;;;;;;4906826;29;20721;-82
2023/02/25 08:10:31;;;;;;;0.68;0.60;;;17.70;42.00;;;;;;4889428;29;20201;-82
2023/02/25 08:12:57;;;;;;;0.90;0.68;;;17.80;41.90;;;;;;4906563;29;20253;-82
2023/02/25 08:15:22;;;;;;;1.15;0.80;;;17.80;42.00;;;;;;4922928;29;20238;-82
2023/02/25 08:17:51;;;;;;;0.68;0.65;;;17.80;41.90;;;;;;4889890;29;20182;-82
2023/02/25 08:20:17;;;;;;;1.23;0.60;;;17.80;42.10;;;;;;4920319;29;20155;-83
2023/02/25 08:22:42;;;;;;;2.10;0.70;;;17.80;42.20;;;;;;4891385;29;20239;-83
2023/02/25 08:25:10;;;;;;;0.75;0.70;;;17.80;42.30;;;;;;4909201;29;20158;-82
2023/02/25 08:27:36;;;;;;;2.30;0.70;;;17.80;42.30;;;;;;4919745;29;20213;-81
2023/02/25 08:30:03;;;;;;;0.60;0.60;;;17.80;42.20;;;;;;4930899;29;20742;-81
2023/02/25 08:32:32;;;;;;;1.00;0.70;;;17.80;42.10;;;;;;4932677;29;20182;-82
2023/02/25 08:34:58;;;;;;;0.95;0.65;;;17.80;42.10;;;;;;4942167;29;20162;-82
2023/02/25 08:37:25;;;;;;;1.35;0.70;;;17.90;42.20;;;;;;4895034;29;20175;-83
2023/02/25 08:39:54;;;;;;;3.20;0.80;;;17.90;42.00;;;;;;4911704;29;20159;-83
2023/02/25 08:42:21;;;;;;;1.10;0.50;;;18.00;42.10;;;;;;4911148;29;20187;-83
2023/02/25 08:44:47;;;;;;;2.28;0.60;;;18.00;42.10;;;;;;4909329;29;20175;-83
2023/02/25 08:47:13;;;;;;;1.25;0.60;;;18.00;42.00;;;;;;4895615;29;20215;-82
2023/02/25 08:49:39;;;;;;;1.48;0.50;;;18.20;41.90;;;;;;4909064;29;20162;-84
2023/02/25 08:52:08;;;;;;;1.58;0.47;;;18.20;41.70;;;;;;4920602;29;20171;-82
2023/02/25 08:54:37;;;;;;;1.15;0.70;;;18.30;41.80;;;;;;4918106;29;20231;-82
2023/02/25 08:57:08;;;;;;;1.15;0.65;;;18.40;41.70;;;;;;4892766;29;20178;-82
2023/02/25 08:59:36;;;;;;;0.95;0.63;;;18.30;42.30;;;;;;4923782;29;20178;-82
2023/02/25 09:02:05;;;;;;;1.63;0.50;;;18.30;41.80;;;;;;4907320;29;20202;-82
2023/02/25 09:04:30;;;;;;;1.05;0.50;;;18.40;41.90;;;;;;4919865;29;20166;-81
2023/02/25 09:07:01;;;;;;;3.08;0.70;;;18.30;41.90;;;;;;4905405;29;20243;-83
2023/02/25 09:09:26;;;;;;;1.27;0.60;;;18.40;42.00;;;;;;4912008;29;20167;-82
2023/02/25 09:11:56;;;;;;;2.10;0.70;;;18.40;42.10;;;;;;4929705;29;20159;-81
2023/02/25 09:14:25;;;;;;;7.72;0.80;;;18.40;42.00;;;;;;4926407;29;20259;-81
2023/02/25 09:16:53;;;;;;;4.85;0.60;;;18.40;41.90;;;;;;4929689;29;20177;-81
2023/02/25 09:19:19;;;;;;;2.60;0.60;;;18.50;41.80;;;;;;4897943;29;20167;-82
2023/02/25 09:21:46;;;;;;;3.90;0.70;;;18.50;41.90;;;;;;4913326;29;20169;-83
2023/02/25 09:24:12;;;;;;;1.55;0.60;;;18.50;41.90;;;;;;4912812;29;20174;-82
2023/02/25 09:26:38;;;;;;;1.55;0.52;;;18.50;41.70;;;;;;4910115;29;20194;-81
2023/02/25 09:29:04;;;;;;;4.05;0.52;;;18.50;41.80;;;;;;4927562;29;20226;-82
2023/02/25 09:31:35;;;;;;;2.55;0.50;;;18.50;41.70;;;;;;4914678;29;20169;-81
2023/02/25 09:34:05;;;;;;;2.78;0.52;;;18.50;41.80;;;;;;4914300;29;20202;-81
2023/02/25 09:36:31;;;;;;;2.60;0.57;;;18.50;41.90;;;;;;4898088;29;20183;-81
2023/02/25 09:38:58;;;;;;;2.65;0.60;;;18.50;42.00;;;;;;4897257;29;20174;-82
2023/02/25 09:41:32;;;;;;;3.72;0.80;;;18.50;42.20;;;;;;4912625;29;20155;-81
2023/02/25 09:44:13;;;;;;;6.07;0.93;;;18.40;42.30;;;;;;4925478;29;20163;-81
2023/02/25 09:46:45;;;;;;;4.03;0.80;;;18.40;42.40;;;;;;4926394;29;20197;-81
2023/02/25 09:49:16;;;;;;;3.15;0.80;;;18.50;42.50;;;;;;4897824;29;20251;-81
2023/02/25 09:51:46;;;;;;;2.05;0.50;;;18.40;42.30;;;;;;4899275;29;20170;-81
2023/02/25 09:54:18;;;;;;;0.68;0.50;;;18.50;42.50;;;;;;4897146;29;20252;-82
2023/02/25 09:56:44;;;;;;;0.63;0.40;;;18.50;42.50;;;;;;4910595;29;20223;-80
2023/02/25 09:59:14;;;;;;;1.05;0.60;;;18.50;43.20;;;;;;4908508;29;20179;-82
2023/02/25 10:01:45;;;;;;;1.70;0.50;;;18.50;42.60;;;;;;4925079;29;20185;-82
2023/02/25 10:04:21;;;;;;;5.35;0.90;;;18.50;42.60;;;;;;4924944;29;20190;-82
2023/02/25 10:06:50;;;;;;;1.90;0.55;;;18.60;42.50;;;;;;4929178;29;20646;-84
2023/02/25 10:09:51;;;;;;;0.70;0.50;;;18.60;42.70;;;;;;4914974;29;20179;-84
2023/02/25 10:12:38;;;;;;;1.85;0.43;;;18.60;42.80;;;;;;4917328;29;20191;-81
2023/02/25 10:15:20;;;;;;;1.02;0.65;;;18.60;43.00;;;;;;4915606;29;20238;-82
2023/02/25 10:18:01;;;;;;;2.58;0.70;;;18.60;43.10;;;;;;4898533;29;20171;-82
2023/02/25 10:20:41;;;;;;;3.03;0.82;;;18.60;43.10;;;;;;4913942;29;20183;-82
2023/02/25 10:23:23;;;;;;;3.28;0.43;;;18.60;43.30;;;;;;4931600;29;20178;-82
2023/02/25 10:25:58;;;;;;;3.95;0.88;;;18.60;43.30;;;;;;4898041;29;20198;-82
2023/02/25 10:28:24;;;;;;;6.13;0.80;;;18.70;43.40;;;;;;4897853;29;20230;-82
2023/02/25 10:31:02;;;;;;;3.30;0.70;;;18.70;43.70;;;;;;4899110;29;20182;-82
2023/02/25 10:33:30;;;;;;;3.40;0.82;;;18.70;43.50;;;;;;4929375;29;20155;-82
2023/02/25 10:36:07;;;;;;;2.40;0.70;;;18.70;43.70;;;;;;4899048;29;20171;-82
2023/02/25 10:38:44;;;;;;;5.65;0.80;;;18.70;43.90;;;;;;4899671;29;20171;-83
2023/02/25 10:41:12;;;;;;;3.38;0.52;;;18.70;43.70;;;;;;4898411;29;20178;-81
2023/02/25 10:43:38;;;;;;;3.13;0.60;;;18.70;43.50;;;;;;4898906;29;20175;-82
2023/02/25 10:46:30;;;;;;;4.07;1.08;;;18.70;43.70;;;;;;4913023;29;20219;-81
2023/02/25 10:49:14;;;;;;;5.60;0.65;;;18.70;44.10;;;;;;4914128;29;20175;-82
2023/02/25 10:52:04;;;;;;;5.20;0.73;;;18.70;44.20;;;;;;4912967;29;20186;-81
2023/02/25 10:54:34;;;;;;;5.22;0.80;;;18.70;43.90;;;;;;4913279;29;20177;-82
2023/02/25 10:57:01;;;;;;;2.63;0.80;;;18.70;44.30;;;;;;4911764;29;20182;-81
2023/02/25 10:59:35;;;;;;;2.35;0.60;;;18.70;44.40;;;;;;4912775;29;20167;-82
2023/02/25 11:02:03;;;;;;;1.88;0.63;;;18.70;44.40;;;;;;4896324;29;20230;-81
2023/02/25 11:04:33;;;;;;;4.22;0.70;;;18.70;44.50;;;;;;4910717;29;20163;-82
2023/02/25 11:07:00;;;;;;;3.90;0.60;;;18.70;44.70;;;;;;4910582;29;20221;-81
2023/02/25 11:09:29;;;;;;;3.45;0.68;;;18.70;44.80;;;;;;4909170;29;20219;-81
2023/02/25 11:11:58;;;;;;;2.20;0.52;;;18.70;44.80;;;;;;4907775;29;20690;-81
2023/02/25 11:14:29;;;;;;;1.48;0.50;;;18.70;44.50;;;;;;4892732;29;20577;-82
2023/02/25 11:17:03;;;;;;;2.97;0.60;;;18.70;44.80;;;;;;4892840;29;20228;-81
2023/02/25 11:19:30;;;;;;;2.15;0.50;;;18.70;44.90;;;;;;4909036;29;20171;-81
2023/02/25 11:21:56;;;;;;;1.48;0.60;;;18.80;44.80;;;;;;4894692;29;20191;-82
2023/02/25 11:24:32;;;;;;;6.78;0.60;;;18.70;44.60;;;;;;4895474;29;20170;-81
2023/02/25 11:26:59;;;;;;;2.25;0.77;;;18.80;44.50;;;;;;4910147;29;20186;-80
2023/02/25 11:29:37;;;;;;;1.15;0.50;;;18.70;44.30;;;;;;4895041;29;20231;-82
2023/02/25 11:32:11;;;;;;;2.50;0.60;;;18.80;44.40;;;;;;4927573;29;20183;-82
2023/02/25 11:34:47;;;;;;;1.42;0.50;;;18.70;44.40;;;;;;4893699;29;20197;-81
2023/02/25 11:37:34;;;;;;;3.13;0.60;;;18.80;44.50;;;;;;4878847;29;20202;-81
2023/02/25 11:40:29;;;;;;;1.35;0.60;;;18.80;44.40;;;;;;4875854;29;20184;-81
2023/02/25 11:43:16;;;;;;;3.92;0.70;;;18.70;44.40;;;;;;4889378;29;20164;-81
2023/02/25 11:45:49;;;;;;;0.85;0.52;;;18.70;44.90;;;;;;4890317;29;20175;-81
2023/02/25 11:48:28;;;;;;;1.67;0.60;;;18.70;44.90;;;;;;4890505;29;20160;-80
2023/02/25 11:51:10;;;;;;;6.63;0.65;;;18.70;44.80;;;;;;4889484;29;20164;-81
2023/02/25 11:54:03;;;;;;;3.70;0.95;;;18.70;44.70;;;;;;4889054;29;20168;-81
2023/02/25 11:56:38;;;;;;;3.45;0.57;;;18.70;44.80;;;;;;4907401;29;20655;-81
2023/02/25 11:59:37;;;;;;;2.17;0.50;;;18.80;44.80;;;;;;4908654;29;20248;-81
2023/02/25 12:02:26;;;;;;;2.10;0.60;;;18.80;44.70;;;;;;4905269;29;20186;-80
2023/02/25 12:05:15;;;;;;;1.73;0.60;;;18.80;44.50;;;;;;4905696;29;20195;-82
2023/02/25 12:08:17;;;;;;;3.28;0.60;;;18.80;44.20;;;;;;4905524;29;20294;-81
2023/02/25 12:11:10;;;;;;;2.80;0.60;;;18.80;44.20;;;;;;4921183;29;20219;-80
2023/02/25 12:14:10;;;;;;;3.40;0.65;;;18.80;44.10;;;;;;4928390;29;20162;-81
2023/02/25 12:17:03;;;;;;;3.03;0.60;;;18.80;44.00;;;;;;4943661;29;20250;-81
2023/02/25 12:19:56;;;;;;;3.63;0.50;;;18.70;43.80;;;;;;4912221;29;20170;-79
2023/02/25 12:22:40;;;;;;;2.22;0.52;;;18.70;43.90;;;;;;4928834;29;20186;-80
2023/02/25 12:25:19;;;;;;;1.33;0.70;;;18.70;43.70;;;;;;4928743;29;20650;-80
2023/02/25 12:27:59;;;;;;;3.45;0.60;;;18.80;43.90;;;;;;4928923;29;20681;-80
2023/02/25 12:31:00;;;;;;;7.60;0.70;;;18.70;43.80;;;;;;4914690;29;20174;-80
2023/02/25 12:33:47;;;;;;;4.60;0.82;;;18.70;43.70;;;;;;4929276;29;20237;-81
2023/02/25 12:36:38;;;;;;;8.20;0.90;;;18.70;43.70;;;;;;4915229;29;20537;-80
2023/02/25 12:39:25;;;;;;;4.22;0.65;;;18.80;43.50;;;;;;4930094;29;20173;-80
2023/02/25 12:42:12;;;;;;;2.35;0.93;;;18.80;43.30;;;;;;4915291;29;20260;-80
2023/02/25 12:45:10;;;;;;;8.95;1.13;;;18.80;43.50;;;;;;4901882;29;20803;-81
2023/02/25 12:48:03;;;;;;;3.10;0.50;;;18.80;43.70;;;;;;4950151;29;20193;-80
2023/02/25 12:50:41;;;;;;;5.38;0.82;;;18.80;43.30;;;;;;4875187;29;20209;-80
2023/02/25 12:53:27;;;;;;;1.98;0.57;;;18.70;43.50;;;;;;4894281;29;20210;-82
2023/02/25 12:56:05;;;;;;;6.40;0.57;;;18.70;43.40;;;;;;4910042;29;20202;-82
2023/02/25 12:58:51;;;;;;;1.73;0.60;;;18.80;43.30;;;;;;4895649;29;20254;-82
2023/02/25 13:01:40;;;;;;;2.00;0.40;;;18.80;43.20;;;;;;4865370;29;20168;-82
2023/02/25 13:04:33;;;;;;;3.83;0.55;;;18.80;43.30;;;;;;4864544;29;20183;-82
2023/02/25 13:07:32;;;;;;;1.85;0.40;;;18.80;43.30;;;;;;4880747;29;20199;-81